sensor_id;sensor_type;location;lat;lon;timestamp;pressure;altitude;pressure_sealevel;temperature
71463;BMP180;59266;52.608;13.260;2023-04-08T00:00:30;101669.00;;;5.90
71463;BMP180;59266;52.608;13.260;2023-04-08T00:02:57;101681.00;;;5.90
71463;BMP180;59266;52.608;13.260;2023-04-08T00:05:23;101679.00;;;6.00
71463;BMP180;59266;52.608;13.260;2023-04-08T00:07:50;101679.00;;;6.00
71463;BMP180;59266;52.608;13.260;2023-04-08T00:10:18;101675.00;;;6.00
71463;BMP180;59266;52.608;13.260;2023-04-08T00:12:46;101686.00;;;6.00
71463;BMP180;59266;52.608;13.260;2023-04-08T00:15:13;101682.00;;;6.00
71463;BMP180;59266;52.608;13.260;2023-04-08T00:17:40;101689.00;;;5.80
71463;BMP180;59266;52.608;13.260;2023-04-08T00:20:07;101682.00;;;6.00
71463;BMP180;59266;52.608;13.260;2023-04-08T00:22:34;101685.00;;;5.90
71463;BMP180;59266;52.608;13.260;2023-04-08T00:25:02;101682.00;;;6.00
71463;BMP180;59266;52.608;13.260;2023-04-08T00:27:32;101682.00;;;6.00
71463;BMP180;59266;52.608;13.260;2023-04-08T00:29:58;101682.00;;;5.90
71463;BMP180;59266;52.608;13.260;2023-04-08T00:32:26;101673.00;;;5.80
71463;BMP180;59266;52.608;13.260;2023-04-08T00:34:53;101680.00;;;6.00
71463;BMP180;59266;52.608;13.260;2023-04-08T00:37:19;101683.00;;;5.90
71463;BMP180;59266;52.608;13.260;2023-04-08T00:39:47;101688.00;;;6.00
71463;BMP180;59266;52.608;13.260;2023-04-08T00:42:13;101693.00;;;5.80
71463;BMP180;59266;52.608;13.260;2023-04-08T00:44:40;101691.00;;;6.00
71463;BMP180;59266;52.608;13.260;2023-04-08T00:47:11;101694.00;;;6.00
71463;BMP180;59266;52.608;13.260;2023-04-08T00:49:42;101682.00;;;6.00
71463;BMP180;59266;52.608;13.260;2023-04-08T00:52:08;101678.00;;;5.80
71463;BMP180;59266;52.608;13.260;2023-04-08T00:54:36;101681.00;;;5.90
71463;BMP180;59266;52.608;13.260;2023-04-08T00:57:06;101682.00;;;5.90
71463;BMP180;59266;52.608;13.260;2023-04-08T00:59:33;101687.00;;;5.90
71463;BMP180;59266;52.608;13.260;2023-04-08T01:05:21;101682.00;;;5.80
71463;BMP180;59266;52.608;13.260;2023-04-08T01:07:49;101679.00;;;5.80
71463;BMP180;59266;52.608;13.260;2023-04-08T01:10:27;101678.00;;;5.80
71463;BMP180;59266;52.608;13.260;2023-04-08T01:13:02;101685.00;;;5.80
71463;BMP180;59266;52.608;13.260;2023-04-08T01:15:35;101676.00;;;5.80
71463;BMP180;59266;52.608;13.260;2023-04-08T01:18:06;101693.00;;;5.90
71463;BMP180;59266;52.608;13.260;2023-04-08T01:20:33;101685.00;;;5.90
71463;BMP180;59266;52.608;13.260;2023-04-08T01:25:32;101681.00;;;6.00
71463;BMP180;59266;52.608;13.260;2023-04-08T01:28:03;101692.00;;;6.00
71463;BMP180;59266;52.608;13.260;2023-04-08T01:30:31;101695.00;;;6.10
71463;BMP180;59266;52.608;13.260;2023-04-08T01:32:58;101699.00;;;6.00
71463;BMP180;59266;52.608;13.260;2023-04-08T01:35:26;101700.00;;;5.90
71463;BMP180;59266;52.608;13.260;2023-04-08T01:37:54;101698.00;;;5.80
71463;BMP180;59266;52.608;13.260;2023-04-08T01:40:21;101699.00;;;5.70
71463;BMP180;59266;52.608;13.260;2023-04-08T01:42:48;101695.00;;;5.70
71463;BMP180;59266;52.608;13.260;2023-04-08T01:45:16;101688.00;;;5.80
71463;BMP180;59266;52.608;13.260;2023-04-08T01:47:44;101694.00;;;5.90
71463;BMP180;59266;52.608;13.260;2023-04-08T01:50:15;101704.00;;;5.90
71463;BMP180;59266;52.608;13.260;2023-04-08T01:52:46;101706.00;;;5.90
71463;BMP180;59266;52.608;13.260;2023-04-08T01:55:15;101708.00;;;5.80
71463;BMP180;59266;52.608;13.260;2023-04-08T01:57:44;101712.00;;;5.70
71463;BMP180;59266;52.608;13.260;2023-04-08T02:00:15;101699.00;;;5.70
71463;BMP180;59266;52.608;13.260;2023-04-08T02:02:44;101696.00;;;5.70
71463;BMP180;59266;52.608;13.260;2023-04-08T02:05:13;101694.00;;;5.80
71463;BMP180;59266;52.608;13.260;2023-04-08T02:07:40;101693.00;;;5.90
71463;BMP180;59266;52.608;13.260;2023-04-08T02:10:07;101694.00;;;5.80
71463;BMP180;59266;52.608;13.260;2023-04-08T02:12:33;101689.00;;;5.90
71463;BMP180;59266;52.608;13.260;2023-04-08T02:15:00;101701.00;;;5.90
71463;BMP180;59266;52.608;13.260;2023-04-08T02:17:33;101699.00;;;5.90
71463;BMP180;59266;52.608;13.260;2023-04-08T02:20:10;101697.00;;;5.90
71463;BMP180;59266;52.608;13.260;2023-04-08T02:22:38;101700.00;;;5.90
71463;BMP180;59266;52.608;13.260;2023-04-08T02:25:15;101704.00;;;5.90
71463;BMP180;59266;52.608;13.260;2023-04-08T02:27:43;101710.00;;;5.90
71463;BMP180;59266;52.608;13.260;2023-04-08T02:30:11;101708.00;;;6.00
71463;BMP180;59266;52.608;13.260;2023-04-08T02:32:39;101717.00;;;6.00
71463;BMP180;59266;52.608;13.260;2023-04-08T02:35:08;101724.00;;;5.90
71463;BMP180;59266;52.608;13.260;2023-04-08T02:37:37;101722.00;;;5.90
71463;BMP180;59266;52.608;13.260;2023-04-08T02:40:21;101722.00;;;5.90
71463;BMP180;59266;52.608;13.260;2023-04-08T02:42:48;101731.00;;;6.00
71463;BMP180;59266;52.608;13.260;2023-04-08T02:45:14;101723.00;;;5.90
71463;BMP180;59266;52.608;13.260;2023-04-08T02:47:41;101726.00;;;5.90
71463;BMP180;59266;52.608;13.260;2023-04-08T02:50:08;101728.00;;;5.90
71463;BMP180;59266;52.608;13.260;2023-04-08T02:52:39;101733.00;;;5.80
71463;BMP180;59266;52.608;13.260;2023-04-08T02:55:10;101731.00;;;5.90
71463;BMP180;59266;52.608;13.260;2023-04-08T02:57:38;101738.00;;;5.80
71463;BMP180;59266;52.608;13.260;2023-04-08T03:00:05;101736.00;;;6.00
71463;BMP180;59266;52.608;13.260;2023-04-08T03:02:32;101737.00;;;5.80
71463;BMP180;59266;52.608;13.260;2023-04-08T03:04:59;101736.00;;;5.80
71463;BMP180;59266;52.608;13.260;2023-04-08T03:07:26;101729.00;;;5.80
71463;BMP180;59266;52.608;13.260;2023-04-08T03:09:56;101726.00;;;5.90
71463;BMP180;59266;52.608;13.260;2023-04-08T03:12:23;101731.00;;;5.90
71463;BMP180;59266;52.608;13.260;2023-04-08T03:14:49;101734.00;;;6.00
71463;BMP180;59266;52.608;13.260;2023-04-08T03:17:16;101735.00;;;6.10
71463;BMP180;59266;52.608;13.260;2023-04-08T03:19:43;101751.00;;;6.10
71463;BMP180;59266;52.608;13.260;2023-04-08T03:22:09;101744.00;;;5.90
71463;BMP180;59266;52.608;13.260;2023-04-08T03:24:36;101742.00;;;6.00
71463;BMP180;59266;52.608;13.260;2023-04-08T03:27:03;101744.00;;;5.90
71463;BMP180;59266;52.608;13.260;2023-04-08T03:29:33;101750.00;;;6.00
71463;BMP180;59266;52.608;13.260;2023-04-08T03:31:59;101752.00;;;6.00
71463;BMP180;59266;52.608;13.260;2023-04-08T03:34:28;101759.00;;;6.00
71463;BMP180;59266;52.608;13.260;2023-04-08T03:36:55;101755.00;;;6.20
71463;BMP180;59266;52.608;13.260;2023-04-08T03:39:25;101763.00;;;6.20
71463;BMP180;59266;52.608;13.260;2023-04-08T03:41:52;101750.00;;;6.10
71463;BMP180;59266;52.608;13.260;2023-04-08T03:44:21;101750.00;;;6.10
71463;BMP180;59266;52.608;13.260;2023-04-08T03:46:51;101753.00;;;6.10
71463;BMP180;59266;52.608;13.260;2023-04-08T03:49:17;101757.00;;;6.10
71463;BMP180;59266;52.608;13.260;2023-04-08T03:51:44;101754.00;;;6.10
71463;BMP180;59266;52.608;13.260;2023-04-08T03:54:10;101765.00;;;6.10
71463;BMP180;59266;52.608;13.260;2023-04-08T03:56:37;101760.00;;;6.00
71463;BMP180;59266;52.608;13.260;2023-04-08T03:59:03;101769.00;;;6.00
71463;BMP180;59266;52.608;13.260;2023-04-08T04:01:30;101764.00;;;6.00
71463;BMP180;59266;52.608;13.260;2023-04-08T04:03:57;101761.00;;;6.00
71463;BMP180;59266;52.608;13.260;2023-04-08T04:06:24;101759.00;;;6.00
71463;BMP180;59266;52.608;13.260;2023-04-08T04:08:55;101766.00;;;6.20
71463;BMP180;59266;52.608;13.260;2023-04-08T04:11:21;101774.00;;;6.10
71463;BMP180;59266;52.608;13.260;2023-04-08T04:13:50;101778.00;;;6.10
71463;BMP180;59266;52.608;13.260;2023-04-08T04:16:16;101786.00;;;6.20
71463;BMP180;59266;52.608;13.260;2023-04-08T04:18:43;101783.00;;;6.10
71463;BMP180;59266;52.608;13.260;2023-04-08T04:21:11;101785.00;;;6.20
71463;BMP180;59266;52.608;13.260;2023-04-08T04:23:40;101786.00;;;6.20
71463;BMP180;59266;52.608;13.260;2023-04-08T04:26:09;101798.00;;;6.00
71463;BMP180;59266;52.608;13.260;2023-04-08T04:28:37;101804.00;;;6.00
71463;BMP180;59266;52.608;13.260;2023-04-08T04:31:03;101803.00;;;5.90
71463;BMP180;59266;52.608;13.260;2023-04-08T04:33:30;101797.00;;;5.90
71463;BMP180;59266;52.608;13.260;2023-04-08T04:36:00;101797.00;;;6.00
71463;BMP180;59266;52.608;13.260;2023-04-08T04:38:27;101798.00;;;6.10
71463;BMP180;59266;52.608;13.260;2023-04-08T04:40:57;101803.00;;;6.10
71463;BMP180;59266;52.608;13.260;2023-04-08T04:43:24;101799.00;;;6.20
71463;BMP180;59266;52.608;13.260;2023-04-08T04:45:51;101803.00;;;6.30
71463;BMP180;59266;52.608;13.260;2023-04-08T04:48:17;101808.00;;;6.20
71463;BMP180;59266;52.608;13.260;2023-04-08T04:50:53;101810.00;;;6.30
71463;BMP180;59266;52.608;13.260;2023-04-08T04:53:20;101812.00;;;6.20
71463;BMP180;59266;52.608;13.260;2023-04-08T04:55:49;101810.00;;;6.20
71463;BMP180;59266;52.608;13.260;2023-04-08T04:58:16;101813.00;;;6.10
71463;BMP180;59266;52.608;13.260;2023-04-08T05:00:44;101813.00;;;6.00
71463;BMP180;59266;52.608;13.260;2023-04-08T05:03:15;101819.00;;;6.20
71463;BMP180;59266;52.608;13.260;2023-04-08T05:05:42;101825.00;;;6.20
71463;BMP180;59266;52.608;13.260;2023-04-08T05:08:09;101829.00;;;6.20
71463;BMP180;59266;52.608;13.260;2023-04-08T05:10:36;101826.00;;;6.20
71463;BMP180;59266;52.608;13.260;2023-04-08T05:13:02;101827.00;;;6.20
71463;BMP180;59266;52.608;13.260;2023-04-08T05:15:31;101836.00;;;6.20
71463;BMP180;59266;52.608;13.260;2023-04-08T05:17:57;101837.00;;;6.10
71463;BMP180;59266;52.608;13.260;2023-04-08T05:20:26;101836.00;;;6.10
71463;BMP180;59266;52.608;13.260;2023-04-08T05:22:52;101835.00;;;6.20
71463;BMP180;59266;52.608;13.260;2023-04-08T05:25:19;101842.00;;;6.20
71463;BMP180;59266;52.608;13.260;2023-04-08T05:27:50;101846.00;;;6.20
71463;BMP180;59266;52.608;13.260;2023-04-08T05:30:18;101846.00;;;6.30
71463;BMP180;59266;52.608;13.260;2023-04-08T05:32:44;101848.00;;;6.20
71463;BMP180;59266;52.608;13.260;2023-04-08T05:35:16;101843.00;;;6.40
71463;BMP180;59266;52.608;13.260;2023-04-08T05:37:42;101843.00;;;6.40
71463;BMP180;59266;52.608;13.260;2023-04-08T05:40:09;101864.00;;;6.40
71463;BMP180;59266;52.608;13.260;2023-04-08T05:42:36;101864.00;;;6.50
71463;BMP180;59266;52.608;13.260;2023-04-08T05:45:08;101857.00;;;6.40
71463;BMP180;59266;52.608;13.260;2023-04-08T05:47:35;101870.00;;;6.60
71463;BMP180;59266;52.608;13.260;2023-04-08T05:50:05;101863.00;;;6.60
71463;BMP180;59266;52.608;13.260;2023-04-08T05:52:32;101870.00;;;6.40
71463;BMP180;59266;52.608;13.260;2023-04-08T05:54:58;101873.00;;;6.50
71463;BMP180;59266;52.608;13.260;2023-04-08T05:57:25;101882.00;;;6.60
71463;BMP180;59266;52.608;13.260;2023-04-08T05:59:54;101872.00;;;6.60
71463;BMP180;59266;52.608;13.260;2023-04-08T06:02:23;101880.00;;;6.70
71463;BMP180;59266;52.608;13.260;2023-04-08T06:04:50;101885.00;;;6.70
71463;BMP180;59266;52.608;13.260;2023-04-08T06:07:16;101884.00;;;6.80
71463;BMP180;59266;52.608;13.260;2023-04-08T06:09:43;101881.00;;;6.90
71463;BMP180;59266;52.608;13.260;2023-04-08T06:12:10;101879.00;;;6.70
71463;BMP180;59266;52.608;13.260;2023-04-08T06:14:38;101900.00;;;6.70
71463;BMP180;59266;52.608;13.260;2023-04-08T06:17:08;101899.00;;;6.80
71463;BMP180;59266;52.608;13.260;2023-04-08T06:19:34;101890.00;;;6.80
71463;BMP180;59266;52.608;13.260;2023-04-08T06:22:01;101896.00;;;6.70
71463;BMP180;59266;52.608;13.260;2023-04-08T06:24:28;101897.00;;;6.80
71463;BMP180;59266;52.608;13.260;2023-04-08T06:26:55;101887.00;;;6.70
71463;BMP180;59266;52.608;13.260;2023-04-08T06:29:22;101891.00;;;6.70
71463;BMP180;59266;52.608;13.260;2023-04-08T06:31:49;101898.00;;;6.90
71463;BMP180;59266;52.608;13.260;2023-04-08T06:34:16;101895.00;;;6.90
71463;BMP180;59266;52.608;13.260;2023-04-08T06:36:44;101898.00;;;6.90
71463;BMP180;59266;52.608;13.260;2023-04-08T06:39:10;101894.00;;;7.00
71463;BMP180;59266;52.608;13.260;2023-04-08T06:41:37;101902.00;;;7.10
71463;BMP180;59266;52.608;13.260;2023-04-08T06:44:03;101913.00;;;7.00
71463;BMP180;59266;52.608;13.260;2023-04-08T06:46:30;101910.00;;;6.90
71463;BMP180;59266;52.608;13.260;2023-04-08T06:48:58;101916.00;;;7.20
71463;BMP180;59266;52.608;13.260;2023-04-08T06:51:26;101916.00;;;7.50
71463;BMP180;59266;52.608;13.260;2023-04-08T06:53:53;101927.00;;;7.50
71463;BMP180;59266;52.608;13.260;2023-04-08T06:56:20;101931.00;;;7.50
71463;BMP180;59266;52.608;13.260;2023-04-08T06:58:49;101938.00;;;7.50
71463;BMP180;59266;52.608;13.260;2023-04-08T07:01:16;101940.00;;;7.30
71463;BMP180;59266;52.608;13.260;2023-04-08T07:03:43;101939.00;;;7.60
71463;BMP180;59266;52.608;13.260;2023-04-08T07:06:10;101941.00;;;7.70
71463;BMP180;59266;52.608;13.260;2023-04-08T07:08:36;101939.00;;;7.60
71463;BMP180;59266;52.608;13.260;2023-04-08T07:11:04;101941.00;;;7.70
71463;BMP180;59266;52.608;13.260;2023-04-08T07:13:31;101942.00;;;7.70
71463;BMP180;59266;52.608;13.260;2023-04-08T07:15:57;101951.00;;;7.70
71463;BMP180;59266;52.608;13.260;2023-04-08T07:18:25;101951.00;;;7.70
71463;BMP180;59266;52.608;13.260;2023-04-08T07:20:52;101952.00;;;7.60
71463;BMP180;59266;52.608;13.260;2023-04-08T07:23:19;101954.00;;;7.90
71463;BMP180;59266;52.608;13.260;2023-04-08T07:25:46;101952.00;;;8.00
71463;BMP180;59266;52.608;13.260;2023-04-08T07:28:15;101965.00;;;8.10
71463;BMP180;59266;52.608;13.260;2023-04-08T07:30:45;101959.00;;;8.10
71463;BMP180;59266;52.608;13.260;2023-04-08T07:33:15;101954.00;;;7.80
71463;BMP180;59266;52.608;13.260;2023-04-08T07:35:44;101951.00;;;8.00
71463;BMP180;59266;52.608;13.260;2023-04-08T07:38:11;101967.00;;;8.20
71463;BMP180;59266;52.608;13.260;2023-04-08T07:40:38;101973.00;;;8.30
71463;BMP180;59266;52.608;13.260;2023-04-08T07:43:05;101974.00;;;8.30
71463;BMP180;59266;52.608;13.260;2023-04-08T07:45:32;101988.00;;;8.30
71463;BMP180;59266;52.608;13.260;2023-04-08T07:47:58;101986.00;;;8.30
71463;BMP180;59266;52.608;13.260;2023-04-08T07:50:28;101976.00;;;8.20
71463;BMP180;59266;52.608;13.260;2023-04-08T07:52:54;101998.00;;;8.20
71463;BMP180;59266;52.608;13.260;2023-04-08T07:55:22;101993.00;;;8.30
71463;BMP180;59266;52.608;13.260;2023-04-08T07:57:49;101979.00;;;8.40
71463;BMP180;59266;52.608;13.260;2023-04-08T08:00:16;101982.00;;;8.30
71463;BMP180;59266;52.608;13.260;2023-04-08T08:02:47;101987.00;;;8.60
71463;BMP180;59266;52.608;13.260;2023-04-08T08:05:14;101989.00;;;8.70
71463;BMP180;59266;52.608;13.260;2023-04-08T08:07:41;101991.00;;;8.60
71463;BMP180;59266;52.608;13.260;2023-04-08T08:10:08;101993.00;;;8.30
71463;BMP180;59266;52.608;13.260;2023-04-08T08:12:36;101988.00;;;8.60
71463;BMP180;59266;52.608;13.260;2023-04-08T08:15:03;101994.00;;;8.70
71463;BMP180;59266;52.608;13.260;2023-04-08T08:17:30;101985.00;;;9.30
71463;BMP180;59266;52.608;13.260;2023-04-08T08:19:59;101987.00;;;9.30
71463;BMP180;59266;52.608;13.260;2023-04-08T08:22:26;101985.00;;;9.10
71463;BMP180;59266;52.608;13.260;2023-04-08T08:24:56;101982.00;;;9.30
71463;BMP180;59266;52.608;13.260;2023-04-08T08:27:23;101986.00;;;9.50
71463;BMP180;59266;52.608;13.260;2023-04-08T08:29:49;102001.00;;;9.80
71463;BMP180;59266;52.608;13.260;2023-04-08T08:32:19;101997.00;;;10.20
71463;BMP180;59266;52.608;13.260;2023-04-08T08:34:46;101986.00;;;10.00
71463;BMP180;59266;52.608;13.260;2023-04-08T08:37:13;102000.00;;;9.70
71463;BMP180;59266;52.608;13.260;2023-04-08T08:39:39;102006.00;;;9.90
71463;BMP180;59266;52.608;13.260;2023-04-08T08:42:06;102009.00;;;9.80
71463;BMP180;59266;52.608;13.260;2023-04-08T08:44:33;102012.00;;;9.60
71463;BMP180;59266;52.608;13.260;2023-04-08T08:47:00;102012.00;;;9.70
71463;BMP180;59266;52.608;13.260;2023-04-08T08:49:27;102011.00;;;9.40
71463;BMP180;59266;52.608;13.260;2023-04-08T08:51:54;102004.00;;;9.50
71463;BMP180;59266;52.608;13.260;2023-04-08T08:54:20;102011.00;;;9.70
71463;BMP180;59266;52.608;13.260;2023-04-08T08:56:47;102010.00;;;10.00
71463;BMP180;59266;52.608;13.260;2023-04-08T08:59:14;102024.00;;;10.10
71463;BMP180;59266;52.608;13.260;2023-04-08T09:01:40;102021.00;;;9.80
71463;BMP180;59266;52.608;13.260;2023-04-08T09:04:10;102025.00;;;9.70
71463;BMP180;59266;52.608;13.260;2023-04-08T09:06:37;102027.00;;;9.90
71463;BMP180;59266;52.608;13.260;2023-04-08T09:09:05;102025.00;;;9.90
71463;BMP180;59266;52.608;13.260;2023-04-08T09:11:41;102035.00;;;10.00
71463;BMP180;59266;52.608;13.260;2023-04-08T09:14:30;102032.00;;;9.70
71463;BMP180;59266;52.608;13.260;2023-04-08T09:16:57;102046.00;;;10.10
71463;BMP180;59266;52.608;13.260;2023-04-08T09:19:27;102040.00;;;9.90
71463;BMP180;59266;52.608;13.260;2023-04-08T09:22:09;102052.00;;;9.90
71463;BMP180;59266;52.608;13.260;2023-04-08T09:24:36;102052.00;;;10.00
71463;BMP180;59266;52.608;13.260;2023-04-08T09:27:06;102062.00;;;9.90
71463;BMP180;59266;52.608;13.260;2023-04-08T09:29:34;102061.00;;;10.00
71463;BMP180;59266;52.608;13.260;2023-04-08T09:32:05;102067.00;;;10.00
71463;BMP180;59266;52.608;13.260;2023-04-08T09:34:32;102067.00;;;10.00
71463;BMP180;59266;52.608;13.260;2023-04-08T09:37:01;102068.00;;;10.10
71463;BMP180;59266;52.608;13.260;2023-04-08T09:39:27;102065.00;;;10.30
71463;BMP180;59266;52.608;13.260;2023-04-08T09:41:57;102068.00;;;10.30
71463;BMP180;59266;52.608;13.260;2023-04-08T09:44:28;102066.00;;;10.50
71463;BMP180;59266;52.608;13.260;2023-04-08T09:47:11;102066.00;;;10.50
71463;BMP180;59266;52.608;13.260;2023-04-08T09:49:50;102076.00;;;10.60
71463;BMP180;59266;52.608;13.260;2023-04-08T09:52:29;102077.00;;;10.60
71463;BMP180;59266;52.608;13.260;2023-04-08T09:55:02;102066.00;;;10.50
71463;BMP180;59266;52.608;13.260;2023-04-08T09:57:54;102072.00;;;10.40
71463;BMP180;59266;52.608;13.260;2023-04-08T10:00:32;102067.00;;;10.60
71463;BMP180;59266;52.608;13.260;2023-04-08T10:03:15;102059.00;;;11.50
71463;BMP180;59266;52.608;13.260;2023-04-08T10:05:45;102059.00;;;12.30
71463;BMP180;59266;52.608;13.260;2023-04-08T10:08:20;102063.00;;;14.00
71463;BMP180;59266;52.608;13.260;2023-04-08T10:10:47;102060.00;;;13.70
71463;BMP180;59266;52.608;13.260;2023-04-08T10:13:14;102063.00;;;13.00
71463;BMP180;59266;52.608;13.260;2023-04-08T10:15:41;102064.00;;;12.90
71463;BMP180;59266;52.608;13.260;2023-04-08T10:23:06;102063.00;;;12.60
71463;BMP180;59266;52.608;13.260;2023-04-08T10:25:42;102066.00;;;13.60
71463;BMP180;59266;52.608;13.260;2023-04-08T10:30:38;102066.00;;;13.20
71463;BMP180;59266;52.608;13.260;2023-04-08T10:36:09;102060.00;;;12.50
71463;BMP180;59266;52.608;13.260;2023-04-08T10:38:37;102071.00;;;12.60
71463;BMP180;59266;52.608;13.260;2023-04-08T10:41:07;102065.00;;;12.80
71463;BMP180;59266;52.608;13.260;2023-04-08T10:43:36;102060.00;;;12.80
71463;BMP180;59266;52.608;13.260;2023-04-08T10:46:03;102064.00;;;12.70
71463;BMP180;59266;52.608;13.260;2023-04-08T10:48:30;102063.00;;;12.40
71463;BMP180;59266;52.608;13.260;2023-04-08T10:51:01;102074.00;;;12.60
71463;BMP180;59266;52.608;13.260;2023-04-08T10:53:34;102064.00;;;13.00
71463;BMP180;59266;52.608;13.260;2023-04-08T10:56:08;102069.00;;;12.70
71463;BMP180;59266;52.608;13.260;2023-04-08T10:58:51;102066.00;;;12.70
71463;BMP180;59266;52.608;13.260;2023-04-08T11:01:18;102071.00;;;13.00
71463;BMP180;59266;52.608;13.260;2023-04-08T11:03:45;102071.00;;;13.20
71463;BMP180;59266;52.608;13.260;2023-04-08T11:06:14;102072.00;;;13.10
71463;BMP180;59266;52.608;13.260;2023-04-08T11:08:41;102057.00;;;13.10
71463;BMP180;59266;52.608;13.260;2023-04-08T11:11:09;102066.00;;;13.60
71463;BMP180;59266;52.608;13.260;2023-04-08T11:13:39;102067.00;;;13.70
71463;BMP180;59266;52.608;13.260;2023-04-08T11:16:13;102032.00;;;14.20
71463;BMP180;59266;52.608;13.260;2023-04-08T11:18:44;102056.00;;;15.30
71463;BMP180;59266;52.608;13.260;2023-04-08T11:21:11;102065.00;;;15.70
71463;BMP180;59266;52.608;13.260;2023-04-08T11:23:38;102066.00;;;15.90
71463;BMP180;59266;52.608;13.260;2023-04-08T11:26:04;102067.00;;;14.80
71463;BMP180;59266;52.608;13.260;2023-04-08T11:28:31;102068.00;;;14.30
71463;BMP180;59266;52.608;13.260;2023-04-08T11:31:00;102063.00;;;14.30
71463;BMP180;59266;52.608;13.260;2023-04-08T11:33:33;102036.00;;;14.70
71463;BMP180;59266;52.608;13.260;2023-04-08T11:36:00;102027.00;;;15.80
71463;BMP180;59266;52.608;13.260;2023-04-08T11:38:29;102060.00;;;15.70
71463;BMP180;59266;52.608;13.260;2023-04-08T11:40:57;102067.00;;;15.40
71463;BMP180;59266;52.608;13.260;2023-04-08T11:43:24;102063.00;;;15.50
71463;BMP180;59266;52.608;13.260;2023-04-08T11:45:54;102072.00;;;15.70
71463;BMP180;59266;52.608;13.260;2023-04-08T11:48:24;102060.00;;;14.80
71463;BMP180;59266;52.608;13.260;2023-04-08T11:51:09;102067.00;;;14.20
71463;BMP180;59266;52.608;13.260;2023-04-08T11:53:40;102073.00;;;14.00
71463;BMP180;59266;52.608;13.260;2023-04-08T11:56:20;102059.00;;;14.10
71463;BMP180;59266;52.608;13.260;2023-04-08T11:58:48;102065.00;;;14.70
71463;BMP180;59266;52.608;13.260;2023-04-08T12:01:15;102064.00;;;15.10
71463;BMP180;59266;52.608;13.260;2023-04-08T12:03:58;102066.00;;;14.60
71463;BMP180;59266;52.608;13.260;2023-04-08T12:06:26;102075.00;;;15.20
71463;BMP180;59266;52.608;13.260;2023-04-08T12:08:54;102069.00;;;15.70
71463;BMP180;59266;52.608;13.260;2023-04-08T12:11:27;102070.00;;;15.90
71463;BMP180;59266;52.608;13.260;2023-04-08T12:13:54;102065.00;;;16.10
71463;BMP180;59266;52.608;13.260;2023-04-08T12:16:22;102069.00;;;15.60
71463;BMP180;59266;52.608;13.260;2023-04-08T12:18:49;102066.00;;;16.20
71463;BMP180;59266;52.608;13.260;2023-04-08T12:21:21;102062.00;;;16.00
71463;BMP180;59266;52.608;13.260;2023-04-08T12:23:54;102060.00;;;16.40
71463;BMP180;59266;52.608;13.260;2023-04-08T12:26:21;102062.00;;;16.80
71463;BMP180;59266;52.608;13.260;2023-04-08T12:28:47;102060.00;;;15.50
71463;BMP180;59266;52.608;13.260;2023-04-08T12:31:17;102061.00;;;15.30
71463;BMP180;59266;52.608;13.260;2023-04-08T12:33:48;102061.00;;;15.40
71463;BMP180;59266;52.608;13.260;2023-04-08T12:36:15;102061.00;;;15.80
71463;BMP180;59266;52.608;13.260;2023-04-08T12:38:45;102064.00;;;16.50
71463;BMP180;59266;52.608;13.260;2023-04-08T12:41:12;102064.00;;;16.10
71463;BMP180;59266;52.608;13.260;2023-04-08T12:43:38;102072.00;;;16.20
71463;BMP180;59266;52.608;13.260;2023-04-08T12:46:05;102072.00;;;16.00
71463;BMP180;59266;52.608;13.260;2023-04-08T12:48:32;102079.00;;;16.20
71463;BMP180;59266;52.608;13.260;2023-04-08T12:50:59;102068.00;;;15.90
71463;BMP180;59266;52.608;13.260;2023-04-08T12:53:26;102060.00;;;15.70
71463;BMP180;59266;52.608;13.260;2023-04-08T12:55:52;102062.00;;;15.70
71463;BMP180;59266;52.608;13.260;2023-04-08T12:58:26;102063.00;;;15.60
71463;BMP180;59266;52.608;13.260;2023-04-08T13:00:52;102054.00;;;15.90
71463;BMP180;59266;52.608;13.260;2023-04-08T13:03:25;102054.00;;;15.90
71463;BMP180;59266;52.608;13.260;2023-04-08T13:05:53;102045.00;;;16.30
71463;BMP180;59266;52.608;13.260;2023-04-08T13:08:20;102046.00;;;16.30
71463;BMP180;59266;52.608;13.260;2023-04-08T13:10:50;102049.00;;;16.80
71463;BMP180;59266;52.608;13.260;2023-04-08T13:13:16;102051.00;;;16.20
71463;BMP180;59266;52.608;13.260;2023-04-08T13:15:43;102030.00;;;16.30
71463;BMP180;59266;52.608;13.260;2023-04-08T13:18:10;102054.00;;;16.10
71463;BMP180;59266;52.608;13.260;2023-04-08T13:20:37;102032.00;;;16.40
71463;BMP180;59266;52.608;13.260;2023-04-08T13:23:03;102047.00;;;15.90
71463;BMP180;59266;52.608;13.260;2023-04-08T13:25:30;102050.00;;;15.70
71463;BMP180;59266;52.608;13.260;2023-04-08T13:27:57;102032.00;;;15.50
71463;BMP180;59266;52.608;13.260;2023-04-08T13:30:23;102038.00;;;15.40
71463;BMP180;59266;52.608;13.260;2023-04-08T13:32:50;102034.00;;;15.20
71463;BMP180;59266;52.608;13.260;2023-04-08T13:35:20;102012.00;;;16.20
71463;BMP180;59266;52.608;13.260;2023-04-08T13:37:47;102033.00;;;17.10
71463;BMP180;59266;52.608;13.260;2023-04-08T13:40:14;102038.00;;;17.00
71463;BMP180;59266;52.608;13.260;2023-04-08T13:42:46;102033.00;;;17.40
71463;BMP180;59266;52.608;13.260;2023-04-08T13:45:13;102049.00;;;17.00
71463;BMP180;59266;52.608;13.260;2023-04-08T13:47:43;102039.00;;;16.60
71463;BMP180;59266;52.608;13.260;2023-04-08T13:50:10;102042.00;;;16.80
71463;BMP180;59266;52.608;13.260;2023-04-08T13:52:37;102054.00;;;15.80
71463;BMP180;59266;52.608;13.260;2023-04-08T13:55:04;102054.00;;;15.70
71463;BMP180;59266;52.608;13.260;2023-04-08T13:57:31;102053.00;;;15.30
71463;BMP180;59266;52.608;13.260;2023-04-08T13:59:58;102038.00;;;15.60
71463;BMP180;59266;52.608;13.260;2023-04-08T14:02:24;102012.00;;;16.30
71463;BMP180;59266;52.608;13.260;2023-04-08T14:04:51;102015.00;;;16.90
71463;BMP180;59266;52.608;13.260;2023-04-08T14:07:19;102011.00;;;17.60
71463;BMP180;59266;52.608;13.260;2023-04-08T14:09:46;102014.00;;;18.10
71463;BMP180;59266;52.608;13.260;2023-04-08T14:12:13;102015.00;;;18.40
71463;BMP180;59266;52.608;13.260;2023-04-08T14:14:42;102004.00;;;18.60